createdAt,value
2022-12-19T00:00:51.156Z,37.15
2022-12-19T00:02:54.511Z,35.25
2022-12-19T00:04:59.216Z,34.17
2022-12-19T00:07:02.810Z,31.52
2022-12-19T00:09:07.158Z,32.88
2022-12-19T00:11:12.464Z,35.78
2022-12-19T00:13:15.726Z,30.90
2022-12-19T00:15:19.265Z,35.15
2022-12-19T00:17:22.512Z,35.13
2022-12-19T00:19:25.684Z,33.00
2022-12-19T00:21:35.138Z,53.33
2022-12-19T00:23:38.968Z,43.75
2022-12-19T00:25:45.741Z,45.35
2022-12-19T00:27:50.348Z,71.82
2022-12-19T00:29:53.913Z,66.40
2022-12-19T00:31:57.240Z,276.35
2022-12-19T00:34:01.554Z,699.58
2022-12-19T00:36:08.384Z,229.32
2022-12-19T00:38:13.032Z,156.40
2022-12-19T00:40:17.187Z,140.93
2022-12-19T00:42:20.503Z,98.07
2022-12-19T00:44:25.240Z,54.20
2022-12-19T00:46:31.699Z,36.25
2022-12-19T00:48:35.387Z,32.92
2022-12-19T00:50:40.095Z,34.40
2022-12-19T00:52:43.330Z,36.05
2022-12-19T00:54:48.066Z,34.50
2022-12-19T00:56:51.343Z,34.78
2022-12-19T00:58:56.155Z,35.78
2022-12-19T01:00:59.571Z,32.90
2022-12-19T01:03:05.637Z,33.50
2022-12-19T01:05:10.231Z,34.78
2022-12-19T01:07:13.500Z,32.90
2022-12-19T01:09:16.725Z,37.05
2022-12-19T01:11:41.726Z,34.28
2022-12-19T01:13:44.048Z,33.78
2022-12-19T01:15:47.586Z,34.70
2022-12-19T01:17:51.816Z,31.85
2022-12-19T01:19:55.087Z,33.10
2022-12-19T01:21:58.383Z,31.10
2022-12-19T01:24:03.630Z,32.88
2022-12-19T01:26:07.583Z,33.13
2022-12-19T01:28:16.330Z,33.40
2022-12-19T01:30:20.066Z,34.25
2022-12-19T01:32:24.766Z,33.25
2022-12-19T01:34:29.001Z,31.90
2022-12-19T01:36:34.767Z,31.92
2022-12-19T01:38:42.991Z,35.10
2022-12-19T01:40:52.950Z,33.47
2022-12-19T01:42:56.499Z,37.63
2022-12-19T01:45:34.054Z,36.22
2022-12-19T01:47:48.430Z,34.95
2022-12-19T01:49:55.754Z,32.83
2022-12-19T01:52:02.656Z,32.88
2022-12-19T01:54:09.446Z,36.15
2022-12-19T01:56:13.371Z,34.90
2022-12-19T01:58:20.230Z,34.38
2022-12-19T02:00:24.901Z,35.50
2022-12-19T02:02:33.194Z,32.95
2022-12-19T02:04:37.444Z,34.53
2022-12-19T02:06:42.443Z,32.25
2022-12-19T02:08:49.304Z,33.13
2022-12-19T02:10:52.847Z,32.95
2022-12-19T02:12:56.798Z,32.33
2022-12-19T02:15:03.092Z,31.42
2022-12-19T02:17:20.452Z,29.20
2022-12-19T02:20:01.119Z,30.42
2022-12-19T02:22:08.214Z,33.50
2022-12-19T02:24:44.515Z,31.77
2022-12-19T02:27:03.319Z,35.17
2022-12-19T02:29:41.674Z,31.67
2022-12-19T02:31:52.306Z,36.22
2022-12-19T02:34:04.703Z,30.58
2022-12-19T02:36:18.140Z,31.30
2022-12-19T02:38:29.284Z,31.10
2022-12-19T02:40:37.333Z,30.48
2022-12-19T02:42:46.084Z,31.42
2022-12-19T02:44:53.429Z,31.77
2022-12-19T02:47:00.119Z,32.33
2022-12-19T02:49:04.769Z,32.35
2022-12-19T02:51:08.228Z,33.28
2022-12-19T02:53:15.619Z,31.33
2022-12-19T02:55:23.892Z,32.53
2022-12-19T02:57:35.098Z,29.83
2022-12-19T02:59:56.230Z,31.17
2022-12-19T03:02:11.919Z,27.58
2022-12-19T03:04:25.764Z,30.50
2022-12-19T03:06:39.689Z,37.20
2022-12-19T03:08:52.320Z,29.70
2022-12-19T03:11:02.199Z,29.42
2022-12-19T03:13:11.843Z,32.70
2022-12-19T03:15:16.034Z,30.52
2022-12-19T03:17:21.215Z,28.17
2022-12-19T03:19:25.597Z,29.85
2022-12-19T03:21:35.984Z,27.70
2022-12-19T03:23:40.944Z,31.38
2022-12-19T03:25:49.754Z,30.45
2022-12-19T03:27:54.841Z,30.27
2022-12-19T03:30:03.953Z,28.45
2022-12-19T03:32:15.221Z,26.50
2022-12-19T03:34:26.284Z,29.60
2022-12-19T03:36:34.911Z,27.27
2022-12-19T03:38:40.481Z,30.83
2022-12-19T03:40:45.614Z,25.48
2022-12-19T03:43:08.372Z,28.02
2022-12-19T03:45:15.121Z,31.17
2022-12-19T03:47:24.072Z,28.08
2022-12-19T03:49:29.518Z,27.00
2022-12-19T03:51:40.818Z,27.42
2022-12-19T03:53:59.273Z,31.15
2022-12-19T03:56:12.662Z,30.02
2022-12-19T03:58:22.327Z,29.08
2022-12-19T04:00:27.035Z,29.05
2022-12-19T04:02:31.523Z,28.92
2022-12-19T04:04:45.395Z,28.23
2022-12-19T04:06:50.194Z,28.38
2022-12-19T04:08:53.720Z,26.23
2022-12-19T04:11:04.653Z,30.23
2022-12-19T04:13:13.522Z,29.85
2022-12-19T04:15:17.478Z,30.00
2022-12-19T04:17:32.220Z,31.02
2022-12-19T04:19:43.923Z,30.77
2022-12-19T04:21:53.947Z,29.05
2022-12-19T04:24:02.842Z,33.30
2022-12-19T04:26:08.497Z,30.17
2022-12-19T04:28:18.577Z,31.23
2022-12-19T04:30:21.945Z,29.38
2022-12-19T04:32:26.921Z,29.65
2022-12-19T04:34:33.011Z,31.10
2022-12-19T04:36:37.701Z,34.05
2022-12-19T04:38:41.050Z,31.70
2022-12-19T04:40:44.377Z,31.23
2022-12-19T04:42:47.542Z,31.80
2022-12-19T04:44:50.754Z,32.38
2022-12-19T04:46:54.028Z,31.25
2022-12-19T04:48:57.315Z,31.45
2022-12-19T04:51:00.810Z,30.95
2022-12-19T04:53:05.438Z,30.17
2022-12-19T04:55:10.464Z,30.27
2022-12-19T04:57:13.768Z,32.15
2022-12-19T04:59:17.022Z,34.92
2022-12-19T05:01:20.283Z,30.98
2022-12-19T05:03:23.648Z,33.70
2022-12-19T05:05:27.206Z,31.52
2022-12-19T05:07:30.482Z,30.55
2022-12-19T05:09:38.197Z,31.83
2022-12-19T05:11:41.471Z,31.33
2022-12-19T05:13:44.936Z,30.33
2022-12-19T05:15:58.154Z,27.65
2022-12-19T05:18:01.448Z,31.58
2022-12-19T05:20:05.987Z,31.98
2022-12-19T05:22:09.357Z,29.88
2022-12-19T05:24:12.529Z,32.80
2022-12-19T05:26:17.505Z,38.58
2022-12-19T05:28:21.197Z,33.67
2022-12-19T05:30:24.531Z,32.85
2022-12-19T05:32:31.171Z,69.25
2022-12-19T05:34:34.403Z,43.85
2022-12-19T05:36:37.674Z,35.10
2022-12-19T05:38:41.292Z,34.42
2022-12-19T05:40:44.499Z,40.40
2022-12-19T05:42:49.029Z,36.38
2022-12-19T05:44:52.229Z,37.85
2022-12-19T05:46:56.559Z,36.13
2022-12-19T05:49:00.563Z,32.45
2022-12-19T05:51:04.801Z,34.50
2022-12-19T05:53:08.405Z,29.65
2022-12-19T05:55:12.476Z,35.08
2022-12-19T05:57:15.684Z,32.90
2022-12-19T05:59:20.230Z,35.55
2022-12-19T06:01:26.121Z,31.10
2022-12-19T06:03:29.485Z,32.60
2022-12-19T06:05:33.110Z,32.63
2022-12-19T06:07:36.656Z,30.20
2022-12-19T06:09:39.831Z,36.38
2022-12-19T06:11:42.979Z,34.30
2022-12-19T06:13:46.216Z,29.92
2022-12-19T06:15:50.771Z,30.85
2022-12-19T06:17:55.411Z,30.25
2022-12-19T06:19:58.567Z,27.50
2022-12-19T06:22:01.725Z,29.75
2022-12-19T06:24:05.561Z,30.05
2022-12-19T06:26:18.273Z,29.90
2022-12-19T06:28:22.140Z,29.88
2022-12-19T06:30:25.272Z,31.10
2022-12-19T06:32:32.377Z,29.27
2022-12-19T06:35:03.231Z,27.90
2022-12-19T06:37:07.804Z,28.73
2022-12-19T06:39:15.627Z,27.73
2022-12-19T06:41:37.840Z,24.67
2022-12-19T06:43:41.095Z,29.60
2022-12-19T06:45:44.406Z,26.27
2022-12-19T06:47:51.665Z,27.38
2022-12-19T06:49:55.072Z,28.75
2022-12-19T06:51:58.271Z,26.92
2022-12-19T06:54:01.462Z,27.88
2022-12-19T06:56:05.919Z,27.08
2022-12-19T06:58:09.125Z,28.58
2022-12-19T07:00:14.005Z,27.05
2022-12-19T07:02:27.271Z,23.15
2022-12-19T07:04:36.171Z,28.67
2022-12-19T07:06:42.350Z,27.77
2022-12-19T07:08:47.884Z,30.77
2022-12-19T07:10:51.090Z,31.23
2022-12-19T07:12:54.278Z,29.92
2022-12-19T07:14:57.467Z,33.97
2022-12-19T07:17:02.767Z,33.45
2022-12-19T07:19:06.443Z,32.33
2022-12-19T07:21:13.972Z,28.98
2022-12-19T07:23:22.097Z,30.10
2022-12-19T07:25:25.299Z,30.38
2022-12-19T07:27:35.505Z,30.60
2022-12-19T07:29:39.231Z,29.23
2022-12-19T07:31:42.642Z,26.98
2022-12-19T07:33:45.985Z,28.35
2022-12-19T07:35:49.315Z,32.25
2022-12-19T07:37:53.866Z,28.58
2022-12-19T07:39:57.019Z,30.70
2022-12-19T07:42:00.221Z,28.17
2022-12-19T07:44:13.211Z,30.60
2022-12-19T07:46:16.438Z,33.15
2022-12-19T07:48:19.641Z,33.45
2022-12-19T07:50:22.785Z,31.10
2022-12-19T07:52:26.750Z,29.45
2022-12-19T07:54:31.237Z,28.80
2022-12-19T07:56:34.421Z,26.73
2022-12-19T07:58:37.657Z,26.75
2022-12-19T08:00:41.009Z,25.25
2022-12-19T08:02:44.338Z,28.83
2022-12-19T08:04:48.221Z,27.00
2022-12-19T08:06:51.402Z,24.05
2022-12-19T08:08:54.574Z,25.10
2022-12-19T08:11:09.871Z,24.40
2022-12-19T08:13:13.079Z,18.95
2022-12-19T08:15:16.370Z,18.02
2022-12-19T08:17:21.049Z,17.55
2022-12-19T08:19:27.609Z,17.67
2022-12-19T08:21:31.554Z,17.50
2022-12-19T08:23:34.812Z,16.23
2022-12-19T08:25:41.146Z,16.10
2022-12-19T08:27:45.731Z,16.83
2022-12-19T08:29:48.879Z,16.55
2022-12-19T08:31:52.327Z,15.25
2022-12-19T08:33:57.631Z,16.92
2022-12-19T08:36:04.661Z,17.17
2022-12-19T08:38:07.820Z,18.88
2022-12-19T08:40:12.243Z,18.00
2022-12-19T08:42:15.668Z,24.52
2022-12-19T08:44:20.231Z,16.70
2022-12-19T08:46:24.150Z,20.00
2022-12-19T08:48:27.605Z,19.40
2022-12-19T08:50:30.746Z,18.85
2022-12-19T08:52:33.903Z,17.40
2022-12-19T08:54:37.375Z,16.83
2022-12-19T08:56:42.242Z,16.67
2022-12-19T08:58:52.677Z,14.68
2022-12-19T09:01:05.312Z,17.52
2022-12-19T09:03:09.443Z,18.90
2022-12-19T09:05:59.490Z,19.42
2022-12-19T09:07:38.581Z,19.85
2022-12-19T09:09:42.148Z,27.83
2022-12-19T09:11:47.462Z,23.15
2022-12-19T09:13:51.708Z,17.13
2022-12-19T09:16:02.799Z,20.60
2022-12-19T09:18:06.535Z,18.33
2022-12-19T09:20:11.828Z,15.10
2022-12-19T09:22:14.964Z,18.10
2022-12-19T09:24:18.129Z,14.07
2022-12-19T09:26:23.025Z,16.52
2022-12-19T09:28:28.026Z,16.60
2022-12-19T09:30:31.548Z,16.58
2022-12-19T09:32:36.767Z,14.00
2022-12-19T09:34:39.910Z,17.30
2022-12-19T09:36:43.027Z,15.63
2022-12-19T09:38:47.096Z,14.23
2022-12-19T09:41:10.810Z,17.77
2022-12-19T09:43:28.087Z,15.45
2022-12-19T09:45:49.028Z,16.77
2022-12-19T09:47:58.820Z,16.95
2022-12-19T09:50:07.586Z,17.10
2022-12-19T09:52:18.188Z,16.30
2022-12-19T09:54:27.685Z,15.95
2022-12-19T09:56:45.356Z,15.48
2022-12-19T09:58:56.963Z,20.60
2022-12-19T10:01:07.433Z,18.67
2022-12-19T10:03:23.160Z,17.75
2022-12-19T10:07:07.707Z,15.85
2022-12-19T10:08:08.545Z,16.38
2022-12-19T10:12:35.913Z,16.33
2022-12-19T10:13:13.029Z,17.48
2022-12-19T10:15:26.935Z,18.00
2022-12-19T10:17:45.019Z,18.63
2022-12-19T10:20:15.895Z,17.75
2022-12-19T10:22:26.200Z,18.80
2022-12-19T10:25:02.086Z,16.52
2022-12-19T10:27:21.810Z,19.08
2022-12-19T10:30:01.399Z,19.25
2022-12-19T10:32:15.959Z,17.75
2022-12-19T10:34:23.024Z,17.40
2022-12-19T10:36:55.720Z,20.77
2022-12-19T10:38:59.742Z,24.58
2022-12-19T10:41:16.642Z,27.70
2022-12-19T10:43:35.619Z,26.10
2022-12-19T10:45:47.059Z,28.60
2022-12-19T10:47:56.440Z,21.85
2022-12-19T10:50:03.992Z,19.38
2022-12-19T10:52:13.320Z,17.98
2022-12-19T10:54:16.549Z,17.25
2022-12-19T10:56:24.696Z,14.27
2022-12-19T10:58:34.526Z,14.77
2022-12-19T11:00:39.176Z,16.20
2022-12-19T11:02:47.069Z,15.13
2022-12-19T11:04:50.501Z,15.55
2022-12-19T11:07:07.953Z,15.63
2022-12-19T11:09:27.587Z,14.93
2022-12-19T11:13:30.212Z,15.70
2022-12-19T11:18:27.419Z,16.10
2022-12-19T11:21:58.831Z,14.95
2022-12-19T11:27:03.750Z,15.13
2022-12-19T11:29:37.594Z,16.67
2022-12-19T11:30:45.724Z,12.43
2022-12-19T11:30:46.601Z,13.85
2022-12-19T11:30:48.005Z,14.73
2022-12-19T11:33:56.968Z,14.75
2022-12-19T11:36:03.627Z,16.52
2022-12-19T11:38:08.468Z,19.25
2022-12-19T11:40:21.225Z,15.50
2022-12-19T11:42:31.473Z,14.45
2022-12-19T11:44:41.101Z,13.75
2022-12-19T11:46:50.866Z,14.80
2022-12-19T11:48:59.672Z,17.17
2022-12-19T11:51:11.187Z,16.00
2022-12-19T11:53:20.573Z,19.10
2022-12-19T11:55:27.577Z,19.20
2022-12-19T11:57:33.101Z,17.10
2022-12-19T11:59:38.382Z,18.02
2022-12-19T12:01:54.452Z,15.65
2022-12-19T12:04:43.684Z,14.60
2022-12-19T12:06:51.997Z,13.30
2022-12-19T12:12:15.704Z,14.15
2022-12-19T12:19:44.547Z,13.48
2022-12-19T12:22:05.969Z,14.93
2022-12-19T12:23:35.263Z,15.65
2022-12-19T12:31:16.921Z,15.85
2022-12-19T12:31:40.238Z,14.55
2022-12-19T12:31:53.070Z,13.43
2022-12-19T12:32:00.980Z,12.27
2022-12-19T12:32:02.998Z,13.32
2022-12-19T12:35:50.924Z,13.68
2022-12-19T12:37:51.336Z,13.27
2022-12-19T12:38:45.348Z,13.40
2022-12-19T12:41:20.990Z,17.17
2022-12-19T12:43:54.734Z,17.27
2022-12-19T12:45:59.311Z,13.38
2022-12-19T12:48:02.551Z,17.42
2022-12-19T12:50:09.082Z,15.93
2022-12-19T12:52:17.489Z,15.10
2022-12-19T12:54:28.310Z,12.43
2022-12-19T12:56:33.208Z,13.88
2022-12-19T12:59:21.419Z,13.40
2022-12-19T13:01:38.629Z,14.18
2022-12-19T13:03:43.349Z,15.50
2022-12-19T13:06:07.960Z,15.60
2022-12-19T13:08:37.048Z,16.90
2022-12-19T13:10:55.052Z,14.10
2022-12-19T13:13:02.564Z,15.27
2022-12-19T13:15:44.273Z,14.55
2022-12-19T13:18:14.716Z,14.80
2022-12-19T13:20:43.035Z,16.35
2022-12-19T13:22:52.396Z,21.17
2022-12-19T13:24:58.995Z,19.40
2022-12-19T13:27:02.145Z,17.13
2022-12-19T13:29:31.284Z,16.02
2022-12-19T13:31:37.300Z,14.40
2022-12-19T13:34:07.341Z,18.20
2022-12-19T13:39:51.353Z,17.92
2022-12-19T13:39:58.424Z,18.17
2022-12-19T13:42:26.211Z,19.77
2022-12-19T13:44:30.287Z,15.88
2022-12-19T13:46:41.469Z,21.67
2022-12-19T13:48:49.841Z,18.20
2022-12-19T13:50:53.618Z,18.80
2022-12-19T13:52:57.223Z,17.08
2022-12-19T13:55:00.792Z,18.52
2022-12-19T13:57:09.764Z,30.08
2022-12-19T13:59:13.287Z,32.58
2022-12-19T14:01:24.101Z,51.35
2022-12-19T14:03:37.261Z,19.50
2022-12-19T14:06:16.059Z,14.27
2022-12-19T14:08:08.148Z,14.73
2022-12-19T14:11:37.967Z,12.70
2022-12-19T14:13:51.131Z,14.93
2022-12-19T14:15:32.436Z,11.90
2022-12-19T14:17:35.680Z,12.18
2022-12-19T14:19:42.452Z,12.30
2022-12-19T14:22:07.037Z,13.38
2022-12-19T14:24:12.821Z,15.27
2022-12-19T14:28:19.922Z,13.93
2022-12-19T14:28:55.063Z,21.80
2022-12-19T14:31:03.841Z,12.98
2022-12-19T14:33:45.139Z,14.25
2022-12-19T14:36:07.919Z,13.98
2022-12-19T14:39:24.576Z,14.77
2022-12-19T14:40:43.080Z,13.10
2022-12-19T14:43:57.138Z,13.30
2022-12-19T14:53:17.944Z,11.75
2022-12-19T14:54:11.821Z,11.65
2022-12-19T14:54:37.732Z,13.88
2022-12-19T14:54:51.479Z,11.40
2022-12-19T14:58:52.565Z,11.70
2022-12-19T15:01:09.468Z,13.30
2022-12-19T15:03:22.676Z,12.15
2022-12-19T15:05:26.537Z,14.20
2022-12-19T15:07:33.298Z,13.38
2022-12-19T15:11:00.031Z,12.77
2022-12-19T15:14:51.839Z,15.13
2022-12-19T15:15:21.291Z,11.90
2022-12-19T15:17:26.960Z,15.25
2022-12-19T15:19:30.196Z,24.58
2022-12-19T15:21:33.469Z,19.73
2022-12-19T15:23:37.775Z,21.75
2022-12-19T15:26:03.237Z,18.73
2022-12-19T15:28:13.431Z,24.00
2022-12-19T15:30:19.592Z,17.80
2022-12-19T15:32:23.270Z,21.98
2022-12-19T15:34:41.585Z,34.03
2022-12-19T15:36:47.861Z,23.35
2022-12-19T15:38:51.208Z,17.58
2022-12-19T15:40:56.222Z,17.48
2022-12-19T15:42:59.917Z,16.52
2022-12-19T15:45:03.201Z,16.35
2022-12-19T15:47:11.961Z,15.57
2022-12-19T15:49:16.954Z,15.18
2022-12-19T15:51:20.162Z,14.40
2022-12-19T15:53:40.309Z,17.70
2022-12-19T15:55:44.769Z,17.13
2022-12-19T15:57:53.824Z,17.27
2022-12-19T15:59:59.684Z,17.42
2022-12-19T16:02:03.764Z,17.45
2022-12-19T16:04:13.755Z,15.98
2022-12-19T16:06:17.167Z,15.25
2022-12-19T16:08:25.351Z,17.42
2022-12-19T16:10:28.671Z,16.35
2022-12-19T16:12:36.570Z,17.80
2022-12-19T16:14:41.200Z,16.02
2022-12-19T16:16:47.725Z,16.50
2022-12-19T16:18:51.070Z,16.33
2022-12-19T16:20:54.473Z,20.35
2022-12-19T16:22:57.938Z,20.15
2022-12-19T16:25:01.119Z,18.23
2022-12-19T16:27:04.738Z,17.05
2022-12-19T16:29:18.891Z,17.30
2022-12-19T16:31:27.645Z,16.02
2022-12-19T16:33:31.997Z,15.95
2022-12-19T16:36:02.990Z,16.05
2022-12-19T16:37:58.410Z,15.95
2022-12-19T16:40:02.046Z,16.20
2022-12-19T16:42:06.029Z,17.83
2022-12-19T16:44:19.492Z,17.10
2022-12-19T16:46:30.622Z,18.63
2022-12-19T16:48:35.586Z,15.15
2022-12-19T16:50:38.819Z,15.27
2022-12-19T16:52:42.837Z,15.02
2022-12-19T16:54:46.135Z,16.02
2022-12-19T16:56:51.416Z,15.55
2022-12-19T16:58:54.885Z,16.60
2022-12-19T17:00:58.429Z,17.50
2022-12-19T17:03:08.293Z,15.38
2022-12-19T17:05:22.536Z,18.85
2022-12-19T17:07:25.809Z,19.52
2022-12-19T17:09:29.120Z,20.77
2022-12-19T17:11:32.529Z,18.65
2022-12-19T17:13:35.884Z,16.08
2022-12-19T17:15:39.237Z,14.98
2022-12-19T17:17:42.419Z,16.95
2022-12-19T17:19:47.393Z,17.20
2022-12-19T17:21:51.663Z,15.25
2022-12-19T17:23:54.792Z,15.35
2022-12-19T17:25:59.389Z,16.77
2022-12-19T17:28:02.542Z,15.18
2022-12-19T17:30:07.646Z,12.02
2022-12-19T17:32:19.851Z,13.10
2022-12-19T17:34:30.929Z,11.70
2022-12-19T17:36:37.723Z,14.25
2022-12-19T17:38:41.101Z,12.80
2022-12-19T17:40:45.163Z,12.93
2022-12-19T17:42:48.734Z,11.38
2022-12-19T17:44:52.218Z,11.93
2022-12-19T17:46:55.363Z,10.43
2022-12-19T17:48:58.502Z,13.50
2022-12-19T17:51:01.719Z,13.55
2022-12-19T17:53:06.771Z,12.77
2022-12-19T17:55:20.687Z,13.38
2022-12-19T17:57:23.835Z,12.52
2022-12-19T17:59:26.920Z,13.52
2022-12-19T18:01:32.277Z,12.90
2022-12-19T18:03:35.663Z,25.95
2022-12-19T18:05:38.837Z,24.25
2022-12-19T18:07:42.075Z,17.83
2022-12-19T18:09:47.624Z,13.15
2022-12-19T18:11:52.591Z,15.32
2022-12-19T18:13:57.043Z,20.83
2022-12-19T18:16:03.615Z,16.48
2022-12-19T18:18:11.838Z,17.38
2022-12-19T18:20:30.955Z,16.48
2022-12-19T18:22:35.098Z,19.73
2022-12-19T18:24:38.430Z,20.17
2022-12-19T18:26:43.090Z,15.95
2022-12-19T18:28:46.442Z,17.00
2022-12-19T18:30:52.418Z,17.40
2022-12-19T18:32:59.711Z,15.52
2022-12-19T18:35:03.085Z,15.30
2022-12-19T18:37:06.540Z,14.57
2022-12-19T18:39:21.751Z,14.55
2022-12-19T18:41:25.510Z,14.45
2022-12-19T18:43:31.091Z,16.75
2022-12-19T18:45:38.619Z,14.32
2022-12-19T18:47:44.559Z,14.57
2022-12-19T18:49:53.191Z,14.88
2022-12-19T18:51:56.403Z,15.13
2022-12-19T18:54:00.081Z,15.80
2022-12-19T18:56:04.625Z,14.27
2022-12-19T18:58:08.135Z,16.73
2022-12-19T19:00:15.830Z,14.73
2022-12-19T19:02:27.093Z,14.48
2022-12-19T19:04:30.508Z,16.15
2022-12-19T19:06:37.789Z,20.05
2022-12-19T19:08:41.548Z,16.60
2022-12-19T19:10:59.345Z,16.02
2022-12-19T19:13:08.238Z,18.90
2022-12-19T19:15:14.700Z,20.30
2022-12-19T19:17:28.098Z,22.60
2022-12-19T19:19:31.382Z,25.98
2022-12-19T19:21:36.809Z,20.60
2022-12-19T19:23:44.535Z,20.98
2022-12-19T19:25:47.752Z,17.90
2022-12-19T19:27:51.042Z,20.65
2022-12-19T19:29:54.228Z,17.35
2022-12-19T19:31:58.891Z,20.55
2022-12-19T19:34:07.215Z,20.60
2022-12-19T19:36:15.304Z,17.50
2022-12-19T19:38:19.827Z,17.13
2022-12-19T19:40:23.276Z,16.40
2022-12-19T19:42:26.556Z,15.85
2022-12-19T19:44:30.094Z,14.70
2022-12-19T19:46:33.481Z,17.80
2022-12-19T19:48:38.187Z,15.55
2022-12-19T19:50:41.430Z,19.98
2022-12-19T19:52:44.621Z,18.25
2022-12-19T19:54:47.847Z,15.32
2022-12-19T19:56:51.084Z,17.85
2022-12-19T19:58:55.255Z,14.23
2022-12-19T20:00:58.612Z,16.02
2022-12-19T20:03:06.356Z,20.17
2022-12-19T20:05:13.381Z,13.82
2022-12-19T20:07:18.177Z,17.95
2022-12-19T20:09:22.392Z,14.98
2022-12-19T20:11:26.671Z,17.67
2022-12-19T20:13:31.424Z,15.43
2022-12-19T20:15:35.515Z,15.20
2022-12-19T20:17:41.095Z,13.02
2022-12-19T20:19:45.135Z,15.18
2022-12-19T20:21:52.042Z,16.92
2022-12-19T20:23:56.446Z,16.58
2022-12-19T20:26:03.059Z,21.52
2022-12-19T20:28:07.709Z,21.05
2022-12-19T20:30:12.632Z,14.38
2022-12-19T20:32:16.712Z,15.25
2022-12-19T20:34:21.600Z,14.07
2022-12-19T20:36:26.500Z,12.00
2022-12-19T20:38:32.019Z,15.15
2022-12-19T20:40:39.404Z,14.48
2022-12-19T20:42:43.218Z,12.45
2022-12-19T20:44:47.086Z,10.25
2022-12-19T20:46:51.120Z,11.15
2022-12-19T20:48:55.765Z,10.45
2022-12-19T20:51:00.748Z,12.43
2022-12-19T20:53:04.902Z,13.02
2022-12-19T20:55:12.623Z,11.20
2022-12-19T20:57:17.316Z,15.13
2022-12-19T20:59:21.179Z,23.05
2022-12-19T21:01:26.302Z,64.70
2022-12-19T21:03:30.613Z,24.67
2022-12-19T21:05:34.581Z,24.75
2022-12-19T21:07:37.773Z,15.25
2022-12-19T21:09:45.039Z,12.00
2022-12-19T21:11:49.876Z,15.13
2022-12-19T21:13:53.846Z,13.80
2022-12-19T21:16:00.329Z,12.15
2022-12-19T21:18:03.605Z,10.65
2022-12-19T21:20:08.971Z,10.52
2022-12-19T21:22:12.194Z,10.95
2022-12-19T21:24:15.331Z,11.98
2022-12-19T21:26:19.149Z,12.15
2022-12-19T21:28:23.659Z,12.48
2022-12-19T21:30:27.034Z,12.35
2022-12-19T21:32:30.250Z,11.70
2022-12-19T21:34:33.508Z,12.32
2022-12-19T21:36:36.913Z,11.98
2022-12-19T21:38:40.686Z,12.38
2022-12-19T21:40:44.611Z,10.63
2022-12-19T21:42:49.309Z,10.93
2022-12-19T21:44:53.877Z,10.82
2022-12-19T21:46:57.139Z,10.65
2022-12-19T21:49:02.532Z,10.40
2022-12-19T21:51:06.344Z,11.05
2022-12-19T21:53:10.704Z,10.82
2022-12-19T21:55:13.917Z,10.13
2022-12-19T21:57:17.188Z,11.77
2022-12-19T21:59:20.472Z,10.05
2022-12-19T22:01:25.839Z,10.38
2022-12-19T22:03:29.163Z,10.80
2022-12-19T22:05:32.496Z,11.38
2022-12-19T22:07:35.743Z,10.40
2022-12-19T22:09:38.941Z,10.45
2022-12-19T22:11:42.979Z,9.35
2022-12-19T22:13:47.792Z,9.40
2022-12-19T22:15:52.102Z,9.52
2022-12-19T22:17:56.619Z,8.65
2022-12-19T22:19:59.789Z,9.32
2022-12-19T22:22:02.981Z,9.10
2022-12-19T22:24:06.446Z,12.40
2022-12-19T22:26:12.648Z,10.05
2022-12-19T22:28:15.786Z,8.95
2022-12-19T22:30:19.005Z,9.00
2022-12-19T22:32:22.156Z,10.40
2022-12-19T22:34:26.624Z,9.40
2022-12-19T22:36:32.721Z,12.50
2022-12-19T22:38:35.981Z,9.63
2022-12-19T22:40:39.257Z,9.55
2022-12-19T22:42:42.466Z,10.48
2022-12-19T22:44:45.641Z,9.32
2022-12-19T22:46:49.574Z,9.00
2022-12-19T22:48:53.300Z,11.80
2022-12-19T22:50:58.417Z,13.15
2022-12-19T22:53:01.613Z,9.60
2022-12-19T22:55:05.777Z,11.38
2022-12-19T22:57:09.017Z,11.50
2022-12-19T22:59:13.623Z,9.30
2022-12-19T23:01:20.663Z,9.23
2022-12-19T23:03:24.013Z,11.15
2022-12-19T23:05:28.022Z,9.88
2022-12-19T23:07:32.624Z,11.52
2022-12-19T23:09:35.780Z,10.82
2022-12-19T23:11:42.656Z,9.52
2022-12-19T23:13:47.536Z,9.45
2022-12-19T23:15:50.790Z,9.50
2022-12-19T23:17:54.066Z,8.98
2022-12-19T23:19:57.300Z,10.45
2022-12-19T23:22:01.398Z,10.13
2022-12-19T23:24:07.165Z,10.82
2022-12-19T23:26:15.974Z,46.53
2022-12-19T23:28:19.448Z,13.70
2022-12-19T23:30:22.663Z,11.90
2022-12-19T23:32:25.867Z,10.52
2022-12-19T23:34:29.077Z,9.80
2022-12-19T23:37:09.074Z,9.88
2022-12-19T23:38:56.543Z,9.05
2022-12-19T23:41:06.196Z,14.02
2022-12-19T23:43:09.933Z,10.73
2022-12-19T23:45:13.379Z,10.38
2022-12-19T23:47:16.830Z,11.68
2022-12-19T23:49:20.091Z,9.95
2022-12-19T23:51:27.643Z,9.27
2022-12-19T23:53:31.346Z,8.52
2022-12-19T23:55:34.609Z,8.68
2022-12-19T23:57:39.232Z,8.45
2022-12-19T23:59:42.462Z,9.68
